Time,TemperatureF,DewpointF,PressureIn,WindDirection,WindDirectionDegrees,WindSpeedMPH,WindSpeedGustMPH,Humidity,HourlyPrecipIn,Conditions,Clouds,dailyrainin,SoftwareType,DateUTC
2013-09-24 00:00:00,63.3,58.0,29.87,SE,135,1.1,-999.0,83,-99.99,,,0.00,Acu-Link.com,2013-09-24 04:00:00,
2013-09-24 00:15:00,63.1,57.5,29.86,ESE,112,1.1,-999.0,82,-99.99,,,0.00,Acu-Link.com,2013-09-24 04:15:00,
2013-09-24 00:30:00,62.8,57.2,29.87,SSE,157,0.0,-999.0,82,-99.99,,,0.00,Acu-Link.com,2013-09-24 04:30:00,
2013-09-24 00:45:00,62.4,57.2,29.86,ENE,67,1.7,-999.0,83,-99.99,,,0.00,Acu-Link.com,2013-09-24 04:45:00,
2013-09-24 01:01:00,62.8,57.6,29.86,East,90,1.1,-999.0,83,-99.99,,,0.00,Acu-Link.com,2013-09-24 05:01:00,
2013-09-24 01:16:00,62.4,56.8,29.86,ENE,67,2.7,-999.0,82,-99.99,,,0.00,Acu-Link.com,2013-09-24 05:16:00,
2013-09-24 01:31:00,62.4,56.1,29.87,East,90,0.0,-999.0,80,-99.99,,,0.00,Acu-Link.com,2013-09-24 05:31:00,
2013-09-24 01:46:00,61.9,56.3,29.86,ESE,112,0.0,-999.0,82,-99.99,,,0.00,Acu-Link.com,2013-09-24 05:46:00,
2013-09-24 02:01:00,61.3,56.7,29.87,East,90,0.0,-999.0,85,-99.99,,,0.00,Acu-Link.com,2013-09-24 06:01:00,
2013-09-24 02:16:00,60.6,56.4,29.87,South,180,0.0,-999.0,86,-99.99,,,0.00,Acu-Link.com,2013-09-24 06:16:00,
2013-09-24 02:31:00,59.9,56.6,29.87,ENE,67,0.0,-999.0,89,-99.99,,,0.00,Acu-Link.com,2013-09-24 06:31:00,
2013-09-24 02:46:00,59.2,56.3,29.86,West,270,0.0,-999.0,90,-99.99,,,0.00,Acu-Link.com,2013-09-24 06:46:00,
2013-09-24 03:01:00,58.8,56.5,29.86,West,270,0.0,-999.0,92,-99.99,,,0.00,Acu-Link.com,2013-09-24 07:01:00,
2013-09-24 03:17:00,58.1,56.4,29.86,West,270,0.0,-999.0,94,-99.99,,,0.00,Acu-Link.com,2013-09-24 07:17:00,
2013-09-24 03:32:00,58.5,57.1,29.86,West,270,0.0,-999.0,95,-99.99,,,0.00,Acu-Link.com,2013-09-24 07:32:00,
2013-09-24 03:47:00,57.9,56.5,29.86,West,270,0.0,-999.0,95,-99.99,,,0.00,Acu-Link.com,2013-09-24 07:47:00,
2013-09-24 04:02:00,57.6,56.8,29.86,West,270,0.0,-999.0,97,-99.99,,,0.00,Acu-Link.com,2013-09-24 08:02:00,
2013-09-24 04:18:00,57.4,56.6,29.86,West,270,0.0,-999.0,97,-99.99,,,0.00,Acu-Link.com,2013-09-24 08:18:00,
2013-09-24 04:33:00,57.0,56.2,29.86,West,270,0.0,-999.0,97,-99.99,,,0.00,Acu-Link.com,2013-09-24 08:33:00,
2013-09-24 04:49:00,56.5,55.7,29.86,West,270,0.0,-999.0,97,-99.99,,,0.00,Acu-Link.com,2013-09-24 08:49:00,
2013-09-24 05:04:00,55.8,55.0,29.86,SE,135,0.0,-999.0,97,-99.99,,,0.00,Acu-Link.com,2013-09-24 09:04:00,
2013-09-24 05:19:00,55.9,55.3,29.86,SE,135,0.0,-999.0,98,-99.99,,,0.00,Acu-Link.com,2013-09-24 09:19:00,
2013-09-24 05:34:00,55.2,54.6,29.86,SE,135,0.0,-999.0,98,-99.99,,,0.00,Acu-Link.com,2013-09-24 09:34:00,
2013-09-24 05:49:00,55.4,54.8,29.87,SE,135,0.0,-999.0,98,-99.99,,,0.00,Acu-Link.com,2013-09-24 09:49:00,
2013-09-24 06:04:00,55.2,54.6,29.87,SE,135,0.0,-999.0,98,-99.99,,,0.00,Acu-Link.com,2013-09-24 10:04:00,
2013-09-24 06:19:00,55.0,54.7,29.87,SE,135,0.0,-999.0,99,-99.99,,,0.00,Acu-Link.com,2013-09-24 10:19:00,
2013-09-24 06:34:00,55.4,55.1,29.87,SE,135,0.0,-999.0,99,-99.99,,,0.00,Acu-Link.com,2013-09-24 10:34:00,
2013-09-24 06:50:00,54.9,54.6,29.88,SE,135,0.0,-999.0,99,-99.99,,,0.00,Acu-Link.com,2013-09-24 10:50:00,
2013-09-24 07:05:00,54.9,54.6,29.88,SE,135,0.0,-999.0,99,-99.99,,,0.00,Acu-Link.com,2013-09-24 11:05:00,
2013-09-24 07:20:00,54.9,54.6,29.89,SE,135,0.0,-999.0,99,-99.99,,,0.00,Acu-Link.com,2013-09-24 11:20:00,
2013-09-24 07:35:00,54.7,54.4,29.89,SE,135,0.0,-999.0,99,-99.99,,,0.00,Acu-Link.com,2013-09-24 11:35:00,
2013-09-24 08:05:00,56.5,56.2,29.89,NNE,22,0.0,-999.0,99,-99.99,,,0.00,Acu-Link.com,2013-09-24 12:05:00,
2013-09-24 08:20:00,57.4,57.1,29.89,NNW,337,0.0,-999.0,99,-99.99,,,0.00,Acu-Link.com,2013-09-24 12:20:00,
2013-09-24 08:35:00,58.8,58.5,29.89,NE,45,2.7,-999.0,99,-99.99,,,0.00,Acu-Link.com,2013-09-24 12:35:00,
2013-09-24 08:50:00,59.9,58.8,29.89,ENE,67,1.7,-999.0,96,-99.99,,,0.00,Acu-Link.com,2013-09-24 12:50:00,
2013-09-24 09:06:00,61.3,58.3,29.90,NNE,22,2.2,-999.0,90,-99.99,,,0.00,Acu-Link.com,2013-09-24 13:06:00,
2013-09-24 09:21:00,63.3,58.0,29.90,NE,45,1.7,-999.0,83,-99.99,,,0.00,Acu-Link.com,2013-09-24 13:21:00,
2013-09-24 09:36:00,64.6,56.9,29.89,NE,45,2.2,-999.0,76,-99.99,,,0.00,Acu-Link.com,2013-09-24 13:36:00,
2013-09-24 09:51:00,66.0,56.3,29.89,West,270,2.2,-999.0,71,-99.99,,,0.00,Acu-Link.com,2013-09-24 13:51:00,
2013-09-24 10:06:00,67.1,55.8,29.90,NNW,337,2.7,-999.0,67,-99.99,,,0.00,Acu-Link.com,2013-09-24 14:06:00,
2013-09-24 10:21:00,68.2,57.2,29.90,East,90,1.7,-999.0,68,-99.99,,,0.00,Acu-Link.com,2013-09-24 14:21:00,
2013-09-24 10:36:00,68.9,56.6,29.90,East,90,1.7,-999.0,65,-99.99,,,0.00,Acu-Link.com,2013-09-24 14:36:00,
2013-09-24 10:51:00,69.6,56.4,29.90,NE,45,4.2,-999.0,63,-99.99,,,0.00,Acu-Link.com,2013-09-24 14:51:00,
2013-09-24 11:06:00,72.0,56.9,29.89,NNE,22,2.7,-999.0,59,-99.99,,,0.00,Acu-Link.com,2013-09-24 15:06:00,
2013-09-24 11:22:00,69.8,54.8,29.89,SSW,202,3.7,-999.0,59,-99.99,,,0.00,Acu-Link.com,2013-09-24 15:22:00,
2013-09-24 11:37:00,72.3,56.7,29.88,ESE,112,2.2,-999.0,58,-99.99,,,0.00,Acu-Link.com,2013-09-24 15:37:00,
2013-09-24 11:52:00,72.1,56.5,29.88,NNE,22,2.2,-999.0,58,-99.99,,,0.00,Acu-Link.com,2013-09-24 15:52:00,
2013-09-24 12:07:00,72.1,56.5,29.87,North,0,2.2,-999.0,58,-99.99,,,0.00,Acu-Link.com,2013-09-24 16:07:00,
2013-09-24 12:22:00,73.0,56.4,29.86,NE,45,2.7,-999.0,56,-99.99,,,0.00,Acu-Link.com,2013-09-24 16:22:00,
2013-09-24 12:37:00,75.0,57.2,29.86,NE,45,2.2,-999.0,54,-99.99,,,0.00,Acu-Link.com,2013-09-24 16:37:00,
2013-09-24 12:53:00,74.5,56.7,29.85,NE,45,2.2,-999.0,54,-99.99,,,0.00,Acu-Link.com,2013-09-24 16:53:00,
2013-09-24 13:08:00,75.4,57.6,29.84,NNE,22,5.3,-999.0,54,-99.99,,,0.00,Acu-Link.com,2013-09-24 17:08:00,
2013-09-24 13:23:00,75.7,57.9,29.84,ESE,112,2.2,-999.0,54,-99.99,,,0.00,Acu-Link.com,2013-09-24 17:23:00,
2013-09-24 13:38:00,77.0,58.0,29.82,NNE,22,1.7,-999.0,52,-99.99,,,0.00,Acu-Link.com,2013-09-24 17:38:00,
2013-09-24 13:53:00,76.1,59.2,29.81,ESE,112,4.7,-999.0,56,-99.99,,,0.00,Acu-Link.com,2013-09-24 17:53:00,
2013-09-24 14:08:00,75.7,57.9,29.81,SE,135,2.7,-999.0,54,-99.99,,,0.00,Acu-Link.com,2013-09-24 18:08:00,
2013-09-24 14:23:00,76.5,58.1,29.81,South,180,1.7,-999.0,53,-99.99,,,0.00,Acu-Link.com,2013-09-24 18:23:00,
2013-09-24 14:38:00,77.0,56.9,29.80,East,90,2.7,-999.0,50,-99.99,,,0.00,Acu-Link.com,2013-09-24 18:38:00,
2013-09-24 14:53:00,77.0,58.5,29.78,NE,45,4.7,-999.0,53,-99.99,,,0.00,Acu-Link.com,2013-09-24 18:53:00,
2013-09-24 15:08:00,76.3,57.9,29.78,East,90,3.7,-999.0,53,-99.99,,,0.00,Acu-Link.com,2013-09-24 19:08:00,
2013-09-24 15:24:00,74.7,56.9,29.78,East,90,1.1,-999.0,54,-99.99,,,0.00,Acu-Link.com,2013-09-24 19:24:00,
2013-09-24 15:39:00,75.9,57.5,29.77,SE,135,3.7,-999.0,53,-99.99,,,0.00,Acu-Link.com,2013-09-24 19:39:00,
2013-09-24 15:54:00,76.8,57.8,29.77,NNE,22,2.7,-999.0,52,-99.99,,,0.00,Acu-Link.com,2013-09-24 19:54:00,
2013-09-24 16:09:00,74.8,57.0,29.77,East,90,2.2,-999.0,54,-99.99,,,0.00,Acu-Link.com,2013-09-24 20:09:00,
2013-09-24 16:24:00,74.8,56.5,29.76,NE,45,1.7,-999.0,53,-99.99,,,0.00,Acu-Link.com,2013-09-24 20:24:00,
2013-09-24 16:39:00,74.5,57.8,29.76,ENE,67,3.7,-999.0,56,-99.99,,,0.00,Acu-Link.com,2013-09-24 20:39:00,
2013-09-24 16:54:00,76.8,56.7,29.77,East,90,2.7,-999.0,50,-99.99,,,0.00,Acu-Link.com,2013-09-24 20:54:00,
2013-09-24 17:09:00,75.0,57.7,29.76,SW,225,0.0,-999.0,55,-99.99,,,0.00,Acu-Link.com,2013-09-24 21:09:00,
2013-09-24 17:24:00,74.3,57.1,29.76,East,90,2.2,-999.0,55,-99.99,,,0.00,Acu-Link.com,2013-09-24 21:24:00,
2013-09-24 17:40:00,73.6,56.9,29.76,NNE,22,3.2,-999.0,56,-99.99,,,0.00,Acu-Link.com,2013-09-24 21:40:00,
2013-09-24 17:55:00,72.7,57.1,29.76,East,90,3.7,-999.0,58,-99.99,,,0.00,Acu-Link.com,2013-09-24 21:55:00,
2013-09-24 18:10:00,71.2,57.9,29.76,ESE,112,0.0,-999.0,63,-99.99,,,0.00,Acu-Link.com,2013-09-24 22:10:00,
2013-09-24 18:25:00,70.0,57.3,29.75,NE,45,0.0,-999.0,64,-99.99,,,0.00,Acu-Link.com,2013-09-24 22:25:00,
2013-09-24 18:40:00,69.1,56.8,29.75,SSE,157,2.2,-999.0,65,-99.99,,,0.00,Acu-Link.com,2013-09-24 22:40:00,
2013-09-24 18:55:00,68.5,56.7,29.75,ENE,67,2.2,-999.0,66,-99.99,,,0.00,Acu-Link.com,2013-09-24 22:55:00,
2013-09-24 19:10:00,68.0,56.6,29.75,East,90,0.0,-999.0,67,-99.99,,,0.00,Acu-Link.com,2013-09-24 23:10:00,
2013-09-24 19:25:00,67.5,56.6,29.76,ESE,112,1.1,-999.0,68,-99.99,,,0.00,Acu-Link.com,2013-09-24 23:25:00,
2013-09-24 19:40:00,67.1,56.6,29.75,SE,135,0.0,-999.0,69,-99.99,,,0.00,Acu-Link.com,2013-09-24 23:40:00,
2013-09-24 19:56:00,66.7,56.2,29.75,ENE,67,0.0,-999.0,69,-99.99,,,0.00,Acu-Link.com,2013-09-24 23:56:00,
2013-09-24 20:11:00,66.6,56.9,29.76,SE,135,0.0,-999.0,71,-99.99,,,0.00,Acu-Link.com,2013-09-25 00:11:00,
2013-09-24 20:26:00,66.4,56.7,29.77,SE,135,0.0,-999.0,71,-99.99,,,0.00,Acu-Link.com,2013-09-25 00:26:00,
2013-09-24 20:41:00,66.0,57.1,29.76,ENE,67,0.0,-999.0,73,-99.99,,,0.00,Acu-Link.com,2013-09-25 00:41:00,
2013-09-24 20:56:00,65.5,56.6,29.76,ENE,67,0.0,-999.0,73,-99.99,,,0.00,Acu-Link.com,2013-09-25 00:56:00,
2013-09-24 21:11:00,64.9,56.4,29.77,ENE,67,0.0,-999.0,74,-99.99,,,0.00,Acu-Link.com,2013-09-25 01:11:00,
2013-09-24 21:26:00,64.4,56.3,29.76,ENE,67,0.0,-999.0,75,-99.99,,,0.00,Acu-Link.com,2013-09-25 01:26:00,
2013-09-24 21:41:00,63.7,56.3,29.77,ENE,67,0.0,-999.0,77,-99.99,,,0.00,Acu-Link.com,2013-09-25 01:41:00,
2013-09-24 21:56:00,63.3,56.0,29.76,ENE,67,0.0,-999.0,77,-99.99,,,0.00,Acu-Link.com,2013-09-25 01:56:00,
2013-09-24 22:12:00,63.3,56.7,29.76,ENE,67,0.0,-999.0,79,-99.99,,,0.00,Acu-Link.com,2013-09-25 02:12:00,
2013-09-24 22:27:00,63.0,57.8,29.76,NNE,22,0.0,-999.0,83,-99.99,,,0.00,Acu-Link.com,2013-09-25 02:27:00,
2013-09-24 22:42:00,62.4,57.8,29.76,North,0,0.0,-999.0,85,-99.99,,,0.00,Acu-Link.com,2013-09-25 02:42:00,
2013-09-24 22:57:00,61.9,58.0,29.76,NW,315,0.0,-999.0,87,-99.99,,,0.00,Acu-Link.com,2013-09-25 02:57:00,
2013-09-24 23:12:00,61.0,58.0,29.76,WNW,292,0.0,-999.0,90,-99.99,,,0.00,Acu-Link.com,2013-09-25 03:12:00,
2013-09-24 23:27:00,60.6,58.0,29.76,WNW,292,0.0,-999.0,91,-99.99,,,0.00,Acu-Link.com,2013-09-25 03:27:00,
2013-09-24 23:42:00,60.1,58.1,29.77,WNW,292,0.0,-999.0,93,-99.99,,,0.00,Acu-Link.com,2013-09-25 03:42:00,
2013-09-24 23:57:00,59.5,57.5,29.76,WNW,292,0.0,-999.0,93,-99.99,,,0.00,Acu-Link.com,2013-09-25 03:57:00,